sensor_id;sensor_type;location;lat;lon;timestamp;P1;durP1;ratioP1;P2;durP2;ratioP2
12871;SDS011;6504;53.766;9.626;2023-01-25T00:00:47;17.67;;;15.43;;
12871;SDS011;6504;53.766;9.626;2023-01-25T00:03:16;19.63;;;15.83;;
12871;SDS011;6504;53.766;9.626;2023-01-25T00:05:44;18.90;;;15.87;;
12871;SDS011;6504;53.766;9.626;2023-01-25T00:08:12;19.13;;;16.87;;
12871;SDS011;6504;53.766;9.626;2023-01-25T00:10:40;19.30;;;16.10;;
12871;SDS011;6504;53.766;9.626;2023-01-25T00:13:12;17.97;;;15.37;;
12871;SDS011;6504;53.766;9.626;2023-01-25T00:15:46;19.37;;;15.57;;
12871;SDS011;6504;53.766;9.626;2023-01-25T00:18:16;17.27;;;14.63;;
12871;SDS011;6504;53.766;9.626;2023-01-25T00:20:44;20.07;;;16.67;;
12871;SDS011;6504;53.766;9.626;2023-01-25T00:23:12;18.97;;;16.43;;
12871;SDS011;6504;53.766;9.626;2023-01-25T00:25:40;20.23;;;17.17;;
12871;SDS011;6504;53.766;9.626;2023-01-25T00:28:10;21.37;;;18.10;;
12871;SDS011;6504;53.766;9.626;2023-01-25T00:30:41;20.30;;;17.53;;
12871;SDS011;6504;53.766;9.626;2023-01-25T00:33:28;20.87;;;16.73;;
12871;SDS011;6504;53.766;9.626;2023-01-25T00:36:01;19.50;;;17.07;;
12871;SDS011;6504;53.766;9.626;2023-01-25T00:38:49;20.73;;;16.30;;
12871;SDS011;6504;53.766;9.626;2023-01-25T00:41:20;20.70;;;16.70;;
12871;SDS011;6504;53.766;9.626;2023-01-25T00:43:48;19.13;;;16.67;;
12871;SDS011;6504;53.766;9.626;2023-01-25T00:46:18;18.30;;;16.03;;
12871;SDS011;6504;53.766;9.626;2023-01-25T00:48:47;21.50;;;17.30;;
12871;SDS011;6504;53.766;9.626;2023-01-25T00:51:16;20.60;;;17.23;;
12871;SDS011;6504;53.766;9.626;2023-01-25T00:53:44;21.00;;;17.50;;
12871;SDS011;6504;53.766;9.626;2023-01-25T00:56:11;21.27;;;16.93;;
12871;SDS011;6504;53.766;9.626;2023-01-25T00:58:40;22.97;;;17.70;;
12871;SDS011;6504;53.766;9.626;2023-01-25T01:01:08;20.20;;;17.00;;
12871;SDS011;6504;53.766;9.626;2023-01-25T01:03:36;22.63;;;18.20;;
12871;SDS011;6504;53.766;9.626;2023-01-25T01:06:07;18.93;;;16.47;;
12871;SDS011;6504;53.766;9.626;2023-01-25T01:08:37;22.50;;;17.40;;
12871;SDS011;6504;53.766;9.626;2023-01-25T01:11:07;22.23;;;19.07;;
12871;SDS011;6504;53.766;9.626;2023-01-25T01:13:37;22.63;;;17.33;;
12871;SDS011;6504;53.766;9.626;2023-01-25T01:16:06;23.37;;;18.63;;
12871;SDS011;6504;53.766;9.626;2023-01-25T01:18:37;25.37;;;18.87;;
12871;SDS011;6504;53.766;9.626;2023-01-25T01:21:08;25.33;;;19.63;;
12871;SDS011;6504;53.766;9.626;2023-01-25T01:23:37;24.53;;;18.70;;
12871;SDS011;6504;53.766;9.626;2023-01-25T01:26:07;25.27;;;19.67;;
12871;SDS011;6504;53.766;9.626;2023-01-25T01:28:37;24.43;;;19.43;;
12871;SDS011;6504;53.766;9.626;2023-01-25T01:31:06;25.40;;;19.93;;
12871;SDS011;6504;53.766;9.626;2023-01-25T01:33:36;23.83;;;18.60;;
12871;SDS011;6504;53.766;9.626;2023-01-25T01:36:09;25.83;;;19.70;;
12871;SDS011;6504;53.766;9.626;2023-01-25T01:38:39;27.03;;;20.70;;
12871;SDS011;6504;53.766;9.626;2023-01-25T01:41:08;26.00;;;20.23;;
12871;SDS011;6504;53.766;9.626;2023-01-25T01:43:36;25.70;;;20.00;;
12871;SDS011;6504;53.766;9.626;2023-01-25T01:46:05;22.73;;;19.53;;
12871;SDS011;6504;53.766;9.626;2023-01-25T01:48:39;26.67;;;21.30;;
12871;SDS011;6504;53.766;9.626;2023-01-25T01:51:14;25.23;;;20.87;;
12871;SDS011;6504;53.766;9.626;2023-01-25T01:53:47;26.20;;;20.83;;
12871;SDS011;6504;53.766;9.626;2023-01-25T01:56:20;26.17;;;20.17;;
12871;SDS011;6504;53.766;9.626;2023-01-25T01:58:53;27.60;;;21.03;;
12871;SDS011;6504;53.766;9.626;2023-01-25T02:01:24;25.73;;;20.30;;
12871;SDS011;6504;53.766;9.626;2023-01-25T02:03:53;27.07;;;19.93;;
12871;SDS011;6504;53.766;9.626;2023-01-25T02:06:26;26.10;;;20.57;;
12871;SDS011;6504;53.766;9.626;2023-01-25T02:08:59;25.67;;;20.33;;
12871;SDS011;6504;53.766;9.626;2023-01-25T02:11:27;24.30;;;18.87;;
12871;SDS011;6504;53.766;9.626;2023-01-25T02:13:57;25.80;;;19.00;;
12871;SDS011;6504;53.766;9.626;2023-01-25T02:16:26;26.30;;;20.03;;
12871;SDS011;6504;53.766;9.626;2023-01-25T02:18:55;21.47;;;17.03;;
12871;SDS011;6504;53.766;9.626;2023-01-25T02:21:29;20.47;;;16.73;;
12871;SDS011;6504;53.766;9.626;2023-01-25T02:24:03;22.47;;;17.80;;
12871;SDS011;6504;53.766;9.626;2023-01-25T02:26:39;21.37;;;15.37;;
12871;SDS011;6504;53.766;9.626;2023-01-25T02:29:07;21.20;;;16.60;;
12871;SDS011;6504;53.766;9.626;2023-01-25T02:31:36;21.93;;;17.23;;
12871;SDS011;6504;53.766;9.626;2023-01-25T02:34:04;21.33;;;16.27;;
12871;SDS011;6504;53.766;9.626;2023-01-25T02:36:33;22.13;;;16.90;;
12871;SDS011;6504;53.766;9.626;2023-01-25T02:39:02;20.23;;;16.27;;
12871;SDS011;6504;53.766;9.626;2023-01-25T02:41:34;20.27;;;15.43;;
12871;SDS011;6504;53.766;9.626;2023-01-25T02:44:06;18.37;;;14.93;;
12871;SDS011;6504;53.766;9.626;2023-01-25T02:46:38;19.80;;;15.77;;
12871;SDS011;6504;53.766;9.626;2023-01-25T02:49:08;18.47;;;14.87;;
12871;SDS011;6504;53.766;9.626;2023-01-25T02:51:38;19.97;;;15.13;;
12871;SDS011;6504;53.766;9.626;2023-01-25T02:54:07;21.83;;;15.43;;
12871;SDS011;6504;53.766;9.626;2023-01-25T02:56:36;18.47;;;14.67;;
12871;SDS011;6504;53.766;9.626;2023-01-25T02:59:07;19.23;;;15.50;;
12871;SDS011;6504;53.766;9.626;2023-01-25T03:01:39;19.40;;;14.73;;
12871;SDS011;6504;53.766;9.626;2023-01-25T03:04:08;17.77;;;13.57;;
12871;SDS011;6504;53.766;9.626;2023-01-25T03:06:36;18.50;;;14.50;;
12871;SDS011;6504;53.766;9.626;2023-01-25T03:09:06;18.97;;;13.93;;
12871;SDS011;6504;53.766;9.626;2023-01-25T03:11:36;19.77;;;14.70;;
12871;SDS011;6504;53.766;9.626;2023-01-25T03:14:04;21.53;;;15.67;;
12871;SDS011;6504;53.766;9.626;2023-01-25T03:16:33;20.57;;;15.97;;
12871;SDS011;6504;53.766;9.626;2023-01-25T03:19:02;19.73;;;15.27;;
12871;SDS011;6504;53.766;9.626;2023-01-25T03:21:30;20.90;;;15.63;;
12871;SDS011;6504;53.766;9.626;2023-01-25T03:23:58;19.20;;;14.93;;
12871;SDS011;6504;53.766;9.626;2023-01-25T03:26:28;22.10;;;15.17;;
12871;SDS011;6504;53.766;9.626;2023-01-25T03:28:56;19.23;;;15.23;;
12871;SDS011;6504;53.766;9.626;2023-01-25T03:31:24;19.23;;;14.63;;
12871;SDS011;6504;53.766;9.626;2023-01-25T03:33:53;21.27;;;15.70;;
12871;SDS011;6504;53.766;9.626;2023-01-25T03:36:21;21.00;;;15.80;;
12871;SDS011;6504;53.766;9.626;2023-01-25T03:38:49;20.13;;;14.63;;
12871;SDS011;6504;53.766;9.626;2023-01-25T03:41:17;20.53;;;15.10;;
12871;SDS011;6504;53.766;9.626;2023-01-25T03:43:45;19.77;;;14.67;;
12871;SDS011;6504;53.766;9.626;2023-01-25T03:46:14;21.17;;;14.77;;
12871;SDS011;6504;53.766;9.626;2023-01-25T03:48:42;20.77;;;14.60;;
12871;SDS011;6504;53.766;9.626;2023-01-25T03:51:11;20.93;;;15.63;;
12871;SDS011;6504;53.766;9.626;2023-01-25T03:53:39;23.27;;;16.70;;
12871;SDS011;6504;53.766;9.626;2023-01-25T03:56:08;21.00;;;15.73;;
12871;SDS011;6504;53.766;9.626;2023-01-25T03:58:42;23.60;;;16.23;;
12871;SDS011;6504;53.766;9.626;2023-01-25T04:01:10;24.73;;;16.40;;
12871;SDS011;6504;53.766;9.626;2023-01-25T04:03:39;22.27;;;16.10;;
12871;SDS011;6504;53.766;9.626;2023-01-25T04:06:07;21.93;;;15.87;;
12871;SDS011;6504;53.766;9.626;2023-01-25T04:08:36;24.37;;;16.57;;
12871;SDS011;6504;53.766;9.626;2023-01-25T04:11:05;22.80;;;16.17;;
12871;SDS011;6504;53.766;9.626;2023-01-25T04:13:34;21.87;;;15.93;;
12871;SDS011;6504;53.766;9.626;2023-01-25T04:16:03;22.20;;;15.40;;
12871;SDS011;6504;53.766;9.626;2023-01-25T04:18:32;21.47;;;15.30;;
12871;SDS011;6504;53.766;9.626;2023-01-25T04:21:00;22.97;;;16.03;;
12871;SDS011;6504;53.766;9.626;2023-01-25T04:23:28;24.80;;;17.30;;
12871;SDS011;6504;53.766;9.626;2023-01-25T04:25:58;23.67;;;16.13;;
12871;SDS011;6504;53.766;9.626;2023-01-25T04:28:27;23.30;;;16.47;;
12871;SDS011;6504;53.766;9.626;2023-01-25T04:30:56;23.27;;;16.40;;
12871;SDS011;6504;53.766;9.626;2023-01-25T04:33:25;22.83;;;16.57;;
12871;SDS011;6504;53.766;9.626;2023-01-25T04:35:53;21.40;;;15.83;;
12871;SDS011;6504;53.766;9.626;2023-01-25T04:38:21;22.70;;;16.23;;
12871;SDS011;6504;53.766;9.626;2023-01-25T04:40:50;23.77;;;17.23;;
12871;SDS011;6504;53.766;9.626;2023-01-25T04:43:20;22.73;;;16.90;;
12871;SDS011;6504;53.766;9.626;2023-01-25T04:45:48;24.70;;;16.97;;
12871;SDS011;6504;53.766;9.626;2023-01-25T04:48:16;25.07;;;17.50;;
12871;SDS011;6504;53.766;9.626;2023-01-25T04:50:45;24.43;;;18.10;;
12871;SDS011;6504;53.766;9.626;2023-01-25T04:53:13;24.53;;;18.73;;
12871;SDS011;6504;53.766;9.626;2023-01-25T04:55:44;22.20;;;16.97;;
12871;SDS011;6504;53.766;9.626;2023-01-25T04:58:13;21.97;;;16.60;;
12871;SDS011;6504;53.766;9.626;2023-01-25T05:00:42;23.77;;;16.77;;
12871;SDS011;6504;53.766;9.626;2023-01-25T05:03:10;21.83;;;16.33;;
12871;SDS011;6504;53.766;9.626;2023-01-25T05:05:42;21.23;;;15.97;;
12871;SDS011;6504;53.766;9.626;2023-01-25T05:08:12;20.97;;;16.63;;
12871;SDS011;6504;53.766;9.626;2023-01-25T05:10:40;20.90;;;16.27;;
12871;SDS011;6504;53.766;9.626;2023-01-25T05:13:08;22.50;;;16.93;;
12871;SDS011;6504;53.766;9.626;2023-01-25T05:15:36;21.07;;;16.27;;
12871;SDS011;6504;53.766;9.626;2023-01-25T05:18:05;21.60;;;16.23;;
12871;SDS011;6504;53.766;9.626;2023-01-25T05:20:33;23.20;;;17.43;;
12871;SDS011;6504;53.766;9.626;2023-01-25T05:23:01;22.83;;;17.57;;
12871;SDS011;6504;53.766;9.626;2023-01-25T05:25:29;21.70;;;17.20;;
12871;SDS011;6504;53.766;9.626;2023-01-25T05:28:15;21.37;;;16.90;;
12871;SDS011;6504;53.766;9.626;2023-01-25T05:30:43;20.47;;;15.77;;
12871;SDS011;6504;53.766;9.626;2023-01-25T05:33:12;20.23;;;15.03;;
12871;SDS011;6504;53.766;9.626;2023-01-25T05:35:40;20.67;;;16.20;;
12871;SDS011;6504;53.766;9.626;2023-01-25T05:38:08;19.27;;;15.93;;
12871;SDS011;6504;53.766;9.626;2023-01-25T05:40:36;19.07;;;15.73;;
12871;SDS011;6504;53.766;9.626;2023-01-25T05:43:04;20.87;;;15.47;;
12871;SDS011;6504;53.766;9.626;2023-01-25T05:45:32;19.00;;;16.00;;
12871;SDS011;6504;53.766;9.626;2023-01-25T05:48:00;17.93;;;16.03;;
12871;SDS011;6504;53.766;9.626;2023-01-25T05:50:30;20.40;;;16.20;;
12871;SDS011;6504;53.766;9.626;2023-01-25T05:52:58;19.87;;;16.33;;
12871;SDS011;6504;53.766;9.626;2023-01-25T05:55:26;18.97;;;16.33;;
12871;SDS011;6504;53.766;9.626;2023-01-25T05:57:54;19.13;;;16.90;;
12871;SDS011;6504;53.766;9.626;2023-01-25T06:00:23;18.57;;;16.00;;
12871;SDS011;6504;53.766;9.626;2023-01-25T06:02:51;18.27;;;15.87;;
12871;SDS011;6504;53.766;9.626;2023-01-25T06:05:21;17.70;;;15.07;;
12871;SDS011;6504;53.766;9.626;2023-01-25T06:07:50;19.27;;;16.57;;
12871;SDS011;6504;53.766;9.626;2023-01-25T06:10:18;19.97;;;16.57;;
12871;SDS011;6504;53.766;9.626;2023-01-25T06:12:46;18.53;;;16.20;;
12871;SDS011;6504;53.766;9.626;2023-01-25T06:15:14;19.03;;;16.50;;
12871;SDS011;6504;53.766;9.626;2023-01-25T06:17:42;18.60;;;16.60;;
12871;SDS011;6504;53.766;9.626;2023-01-25T06:20:10;18.90;;;16.50;;
12871;SDS011;6504;53.766;9.626;2023-01-25T06:22:39;18.30;;;16.20;;
12871;SDS011;6504;53.766;9.626;2023-01-25T06:25:08;18.80;;;16.80;;
12871;SDS011;6504;53.766;9.626;2023-01-25T06:27:37;19.33;;;17.30;;
12871;SDS011;6504;53.766;9.626;2023-01-25T06:30:05;19.53;;;16.57;;
12871;SDS011;6504;53.766;9.626;2023-01-25T06:32:34;20.23;;;17.90;;
12871;SDS011;6504;53.766;9.626;2023-01-25T06:35:03;18.57;;;16.57;;
12871;SDS011;6504;53.766;9.626;2023-01-25T06:37:32;19.07;;;16.40;;
12871;SDS011;6504;53.766;9.626;2023-01-25T06:40:00;20.13;;;16.93;;
12871;SDS011;6504;53.766;9.626;2023-01-25T06:42:30;20.10;;;17.67;;
12871;SDS011;6504;53.766;9.626;2023-01-25T06:44:58;17.87;;;15.97;;
12871;SDS011;6504;53.766;9.626;2023-01-25T06:47:26;18.53;;;16.53;;
12871;SDS011;6504;53.766;9.626;2023-01-25T06:49:54;18.53;;;16.63;;
12871;SDS011;6504;53.766;9.626;2023-01-25T06:52:22;18.67;;;16.27;;
12871;SDS011;6504;53.766;9.626;2023-01-25T06:54:50;17.47;;;15.63;;
12871;SDS011;6504;53.766;9.626;2023-01-25T06:57:18;18.50;;;16.40;;
12871;SDS011;6504;53.766;9.626;2023-01-25T06:59:48;18.13;;;16.23;;
12871;SDS011;6504;53.766;9.626;2023-01-25T07:02:16;18.87;;;16.23;;
12871;SDS011;6504;53.766;9.626;2023-01-25T07:04:47;18.00;;;16.10;;
12871;SDS011;6504;53.766;9.626;2023-01-25T07:07:15;17.20;;;15.40;;
12871;SDS011;6504;53.766;9.626;2023-01-25T07:09:43;18.80;;;15.77;;
12871;SDS011;6504;53.766;9.626;2023-01-25T07:12:11;18.03;;;16.23;;
12871;SDS011;6504;53.766;9.626;2023-01-25T07:14:39;17.07;;;14.93;;
12871;SDS011;6504;53.766;9.626;2023-01-25T07:17:09;18.03;;;16.10;;
12871;SDS011;6504;53.766;9.626;2023-01-25T07:19:36;16.53;;;14.60;;
12871;SDS011;6504;53.766;9.626;2023-01-25T07:22:04;16.90;;;15.10;;
12871;SDS011;6504;53.766;9.626;2023-01-25T07:24:32;18.90;;;15.57;;
12871;SDS011;6504;53.766;9.626;2023-01-25T07:27:00;16.53;;;14.50;;
12871;SDS011;6504;53.766;9.626;2023-01-25T07:29:29;17.43;;;15.30;;
12871;SDS011;6504;53.766;9.626;2023-01-25T07:31:57;18.23;;;15.60;;
12871;SDS011;6504;53.766;9.626;2023-01-25T07:34:26;18.50;;;16.50;;
12871;SDS011;6504;53.766;9.626;2023-01-25T07:36:54;17.43;;;15.53;;
12871;SDS011;6504;53.766;9.626;2023-01-25T07:39:22;17.57;;;15.67;;
12871;SDS011;6504;53.766;9.626;2023-01-25T07:41:50;16.77;;;14.97;;
12871;SDS011;6504;53.766;9.626;2023-01-25T07:44:18;17.67;;;15.33;;
12871;SDS011;6504;53.766;9.626;2023-01-25T07:46:46;17.70;;;15.73;;
12871;SDS011;6504;53.766;9.626;2023-01-25T07:49:14;17.40;;;15.43;;
12871;SDS011;6504;53.766;9.626;2023-01-25T07:51:44;17.00;;;15.20;;
12871;SDS011;6504;53.766;9.626;2023-01-25T07:54:12;18.97;;;15.93;;
12871;SDS011;6504;53.766;9.626;2023-01-25T07:56:40;18.47;;;16.30;;
12871;SDS011;6504;53.766;9.626;2023-01-25T07:59:08;19.57;;;16.73;;
12871;SDS011;6504;53.766;9.626;2023-01-25T08:01:37;20.07;;;17.97;;
12871;SDS011;6504;53.766;9.626;2023-01-25T08:04:06;19.90;;;17.70;;
12871;SDS011;6504;53.766;9.626;2023-01-25T08:06:35;21.53;;;17.80;;
12871;SDS011;6504;53.766;9.626;2023-01-25T08:09:06;20.37;;;17.23;;
12871;SDS011;6504;53.766;9.626;2023-01-25T08:11:37;21.07;;;18.30;;
12871;SDS011;6504;53.766;9.626;2023-01-25T08:14:05;21.40;;;18.07;;
12871;SDS011;6504;53.766;9.626;2023-01-25T08:16:34;21.50;;;18.13;;
12871;SDS011;6504;53.766;9.626;2023-01-25T08:19:02;22.43;;;18.57;;
12871;SDS011;6504;53.766;9.626;2023-01-25T08:21:31;23.40;;;19.77;;
12871;SDS011;6504;53.766;9.626;2023-01-25T08:24:00;22.43;;;18.97;;
12871;SDS011;6504;53.766;9.626;2023-01-25T08:26:32;23.13;;;19.57;;
12871;SDS011;6504;53.766;9.626;2023-01-25T08:29:02;25.40;;;19.67;;
12871;SDS011;6504;53.766;9.626;2023-01-25T08:31:31;26.87;;;21.23;;
12871;SDS011;6504;53.766;9.626;2023-01-25T08:34:01;24.50;;;20.20;;
12871;SDS011;6504;53.766;9.626;2023-01-25T08:36:30;27.47;;;22.20;;
12871;SDS011;6504;53.766;9.626;2023-01-25T08:38:59;28.17;;;23.10;;
12871;SDS011;6504;53.766;9.626;2023-01-25T08:41:29;29.20;;;21.43;;
12871;SDS011;6504;53.766;9.626;2023-01-25T08:43:59;28.03;;;21.60;;
12871;SDS011;6504;53.766;9.626;2023-01-25T08:46:27;26.37;;;21.70;;
12871;SDS011;6504;53.766;9.626;2023-01-25T08:48:57;28.13;;;22.63;;
12871;SDS011;6504;53.766;9.626;2023-01-25T08:51:27;30.37;;;22.97;;
12871;SDS011;6504;53.766;9.626;2023-01-25T08:53:56;30.63;;;23.47;;
12871;SDS011;6504;53.766;9.626;2023-01-25T08:56:29;29.87;;;23.60;;
12871;SDS011;6504;53.766;9.626;2023-01-25T08:58:57;29.93;;;22.87;;
12871;SDS011;6504;53.766;9.626;2023-01-25T09:01:26;27.83;;;23.60;;
12871;SDS011;6504;53.766;9.626;2023-01-25T09:03:54;30.50;;;23.97;;
12871;SDS011;6504;53.766;9.626;2023-01-25T09:06:22;30.87;;;24.17;;
12871;SDS011;6504;53.766;9.626;2023-01-25T09:08:50;30.23;;;23.27;;
12871;SDS011;6504;53.766;9.626;2023-01-25T09:11:19;29.43;;;24.23;;
12871;SDS011;6504;53.766;9.626;2023-01-25T09:13:48;32.17;;;24.97;;
12871;SDS011;6504;53.766;9.626;2023-01-25T09:16:18;30.97;;;24.80;;
12871;SDS011;6504;53.766;9.626;2023-01-25T09:18:54;30.17;;;24.40;;
12871;SDS011;6504;53.766;9.626;2023-01-25T09:21:23;31.73;;;24.60;;
12871;SDS011;6504;53.766;9.626;2023-01-25T09:23:52;31.13;;;25.10;;
12871;SDS011;6504;53.766;9.626;2023-01-25T09:26:37;31.00;;;25.93;;
12871;SDS011;6504;53.766;9.626;2023-01-25T09:29:13;29.67;;;24.27;;
12871;SDS011;6504;53.766;9.626;2023-01-25T09:31:43;31.20;;;24.37;;
12871;SDS011;6504;53.766;9.626;2023-01-25T09:34:12;30.47;;;24.17;;
12871;SDS011;6504;53.766;9.626;2023-01-25T09:36:41;32.43;;;25.80;;
12871;SDS011;6504;53.766;9.626;2023-01-25T09:39:11;31.87;;;25.80;;
12871;SDS011;6504;53.766;9.626;2023-01-25T09:41:55;34.53;;;26.17;;
12871;SDS011;6504;53.766;9.626;2023-01-25T09:47:46;36.20;;;26.43;;
12871;SDS011;6504;53.766;9.626;2023-01-25T09:50:23;33.87;;;26.93;;
12871;SDS011;6504;53.766;9.626;2023-01-25T09:53:15;36.50;;;28.57;;
12871;SDS011;6504;53.766;9.626;2023-01-25T09:55:50;39.70;;;28.20;;
12871;SDS011;6504;53.766;9.626;2023-01-25T09:58:21;35.13;;;27.20;;
12871;SDS011;6504;53.766;9.626;2023-01-25T10:00:56;35.90;;;28.00;;
12871;SDS011;6504;53.766;9.626;2023-01-25T10:04:05;37.60;;;28.67;;
12871;SDS011;6504;53.766;9.626;2023-01-25T10:06:42;35.97;;;28.60;;
12871;SDS011;6504;53.766;9.626;2023-01-25T10:09:29;40.13;;;28.63;;
12871;SDS011;6504;53.766;9.626;2023-01-25T10:12:04;37.13;;;28.70;;
12871;SDS011;6504;53.766;9.626;2023-01-25T10:14:38;39.93;;;28.83;;
12871;SDS011;6504;53.766;9.626;2023-01-25T10:17:09;40.10;;;29.83;;
12871;SDS011;6504;53.766;9.626;2023-01-25T10:19:46;37.77;;;28.73;;
12871;SDS011;6504;53.766;9.626;2023-01-25T10:22:22;39.73;;;29.37;;
12871;SDS011;6504;53.766;9.626;2023-01-25T10:25:07;36.83;;;27.93;;
12871;SDS011;6504;53.766;9.626;2023-01-25T10:27:51;40.97;;;28.83;;
12871;SDS011;6504;53.766;9.626;2023-01-25T10:30:40;38.43;;;27.70;;
12871;SDS011;6504;53.766;9.626;2023-01-25T10:33:14;37.53;;;29.60;;
12871;SDS011;6504;53.766;9.626;2023-01-25T10:35:47;38.97;;;29.60;;
12871;SDS011;6504;53.766;9.626;2023-01-25T10:38:17;41.77;;;30.23;;
12871;SDS011;6504;53.766;9.626;2023-01-25T10:40:52;39.00;;;29.17;;
12871;SDS011;6504;53.766;9.626;2023-01-25T10:43:23;38.63;;;29.23;;
12871;SDS011;6504;53.766;9.626;2023-01-25T10:45:52;37.53;;;29.20;;
12871;SDS011;6504;53.766;9.626;2023-01-25T10:48:20;35.83;;;28.30;;
12871;SDS011;6504;53.766;9.626;2023-01-25T10:50:55;41.77;;;30.60;;
12871;SDS011;6504;53.766;9.626;2023-01-25T10:56:10;40.57;;;30.03;;
12871;SDS011;6504;53.766;9.626;2023-01-25T10:58:48;40.70;;;29.17;;
12871;SDS011;6504;53.766;9.626;2023-01-25T11:01:23;40.97;;;31.20;;
12871;SDS011;6504;53.766;9.626;2023-01-25T11:03:53;40.93;;;30.03;;
12871;SDS011;6504;53.766;9.626;2023-01-25T11:06:30;41.23;;;30.73;;
12871;SDS011;6504;53.766;9.626;2023-01-25T11:09:00;42.47;;;30.93;;
12871;SDS011;6504;53.766;9.626;2023-01-25T11:11:52;41.63;;;31.50;;
12871;SDS011;6504;53.766;9.626;2023-01-25T11:14:22;43.57;;;31.23;;
12871;SDS011;6504;53.766;9.626;2023-01-25T11:16:52;45.23;;;32.83;;
12871;SDS011;6504;53.766;9.626;2023-01-25T11:19:27;46.40;;;33.17;;
12871;SDS011;6504;53.766;9.626;2023-01-25T11:22:00;43.00;;;32.30;;
12871;SDS011;6504;53.766;9.626;2023-01-25T11:24:30;45.23;;;33.17;;
12871;SDS011;6504;53.766;9.626;2023-01-25T11:27:14;44.47;;;33.20;;
12871;SDS011;6504;53.766;9.626;2023-01-25T11:30:06;45.23;;;32.90;;
12871;SDS011;6504;53.766;9.626;2023-01-25T11:32:37;45.43;;;33.43;;
12871;SDS011;6504;53.766;9.626;2023-01-25T11:35:11;48.37;;;34.63;;
12871;SDS011;6504;53.766;9.626;2023-01-25T11:37:55;43.50;;;32.57;;
12871;SDS011;6504;53.766;9.626;2023-01-25T11:40:36;46.13;;;32.93;;
12871;SDS011;6504;53.766;9.626;2023-01-25T11:43:13;43.67;;;33.90;;
12871;SDS011;6504;53.766;9.626;2023-01-25T11:45:54;43.70;;;32.07;;
12871;SDS011;6504;53.766;9.626;2023-01-25T11:51:26;44.63;;;31.50;;
12871;SDS011;6504;53.766;9.626;2023-01-25T11:54:05;45.40;;;32.67;;
12871;SDS011;6504;53.766;9.626;2023-01-25T11:56:56;47.97;;;33.50;;
12871;SDS011;6504;53.766;9.626;2023-01-25T11:59:30;43.77;;;31.43;;
12871;SDS011;6504;53.766;9.626;2023-01-25T12:02:31;41.37;;;30.07;;
12871;SDS011;6504;53.766;9.626;2023-01-25T12:05:20;45.97;;;32.47;;
12871;SDS011;6504;53.766;9.626;2023-01-25T12:08:02;44.37;;;32.80;;
12871;SDS011;6504;53.766;9.626;2023-01-25T12:10:45;44.03;;;31.70;;
12871;SDS011;6504;53.766;9.626;2023-01-25T12:13:23;46.47;;;31.90;;
12871;SDS011;6504;53.766;9.626;2023-01-25T12:16:06;44.03;;;31.53;;
12871;SDS011;6504;53.766;9.626;2023-01-25T12:18:48;45.70;;;31.13;;
12871;SDS011;6504;53.766;9.626;2023-01-25T12:21:35;47.77;;;33.77;;
12871;SDS011;6504;53.766;9.626;2023-01-25T12:24:20;46.03;;;31.97;;
12871;SDS011;6504;53.766;9.626;2023-01-25T12:27:04;45.40;;;32.17;;
12871;SDS011;6504;53.766;9.626;2023-01-25T12:29:43;47.73;;;33.70;;
12871;SDS011;6504;53.766;9.626;2023-01-25T12:32:16;45.13;;;31.77;;
12871;SDS011;6504;53.766;9.626;2023-01-25T12:34:50;44.07;;;32.47;;
12871;SDS011;6504;53.766;9.626;2023-01-25T12:37:31;44.47;;;32.00;;
12871;SDS011;6504;53.766;9.626;2023-01-25T12:40:05;43.83;;;30.90;;
12871;SDS011;6504;53.766;9.626;2023-01-25T12:42:41;45.53;;;32.67;;
12871;SDS011;6504;53.766;9.626;2023-01-25T12:45:18;46.20;;;33.03;;
12871;SDS011;6504;53.766;9.626;2023-01-25T12:47:50;47.33;;;34.47;;
12871;SDS011;6504;53.766;9.626;2023-01-25T12:50:24;45.30;;;33.27;;
12871;SDS011;6504;53.766;9.626;2023-01-25T12:53:00;47.67;;;34.03;;
12871;SDS011;6504;53.766;9.626;2023-01-25T12:55:31;46.90;;;32.43;;
12871;SDS011;6504;53.766;9.626;2023-01-25T12:58:03;48.60;;;31.67;;
12871;SDS011;6504;53.766;9.626;2023-01-25T13:00:36;46.07;;;34.03;;
12871;SDS011;6504;53.766;9.626;2023-01-25T13:03:16;48.03;;;32.67;;
12871;SDS011;6504;53.766;9.626;2023-01-25T13:05:55;50.87;;;34.70;;
12871;SDS011;6504;53.766;9.626;2023-01-25T13:08:33;48.10;;;34.33;;
12871;SDS011;6504;53.766;9.626;2023-01-25T13:11:10;48.23;;;34.47;;
12871;SDS011;6504;53.766;9.626;2023-01-25T13:13:43;48.00;;;33.83;;
12871;SDS011;6504;53.766;9.626;2023-01-25T13:19:03;49.93;;;34.33;;
12871;SDS011;6504;53.766;9.626;2023-01-25T13:21:45;46.73;;;32.10;;
12871;SDS011;6504;53.766;9.626;2023-01-25T13:24:21;46.53;;;32.53;;
12871;SDS011;6504;53.766;9.626;2023-01-25T13:26:57;46.13;;;32.50;;
12871;SDS011;6504;53.766;9.626;2023-01-25T13:35:30;44.67;;;30.33;;
12871;SDS011;6504;53.766;9.626;2023-01-25T13:38:23;44.73;;;30.70;;
12871;SDS011;6504;53.766;9.626;2023-01-25T13:41:02;45.87;;;30.57;;
12871;SDS011;6504;53.766;9.626;2023-01-25T13:43:44;44.97;;;29.53;;
12871;SDS011;6504;53.766;9.626;2023-01-25T13:46:16;42.87;;;29.43;;
12871;SDS011;6504;53.766;9.626;2023-01-25T13:48:52;39.63;;;27.77;;
12871;SDS011;6504;53.766;9.626;2023-01-25T13:51:25;41.37;;;29.13;;
12871;SDS011;6504;53.766;9.626;2023-01-25T13:53:57;42.33;;;28.40;;
12871;SDS011;6504;53.766;9.626;2023-01-25T13:56:27;42.97;;;28.13;;
12871;SDS011;6504;53.766;9.626;2023-01-25T13:58:59;41.20;;;28.10;;
12871;SDS011;6504;53.766;9.626;2023-01-25T14:01:30;39.07;;;27.67;;
12871;SDS011;6504;53.766;9.626;2023-01-25T14:04:02;43.20;;;28.87;;
12871;SDS011;6504;53.766;9.626;2023-01-25T14:06:32;40.87;;;28.30;;
12871;SDS011;6504;53.766;9.626;2023-01-25T14:09:04;41.03;;;28.10;;
12871;SDS011;6504;53.766;9.626;2023-01-25T14:11:43;40.27;;;27.80;;
12871;SDS011;6504;53.766;9.626;2023-01-25T14:14:16;43.17;;;30.10;;
12871;SDS011;6504;53.766;9.626;2023-01-25T14:16:57;43.07;;;28.97;;
12871;SDS011;6504;53.766;9.626;2023-01-25T14:19:28;43.63;;;29.20;;
12871;SDS011;6504;53.766;9.626;2023-01-25T14:25:00;43.83;;;27.53;;
12871;SDS011;6504;53.766;9.626;2023-01-25T14:27:40;43.87;;;29.13;;
12871;SDS011;6504;53.766;9.626;2023-01-25T14:30:17;42.57;;;28.83;;
12871;SDS011;6504;53.766;9.626;2023-01-25T14:32:49;39.43;;;27.50;;
12871;SDS011;6504;53.766;9.626;2023-01-25T14:38:26;41.37;;;28.13;;
12871;SDS011;6504;53.766;9.626;2023-01-25T14:41:01;44.47;;;28.90;;
12871;SDS011;6504;53.766;9.626;2023-01-25T14:43:37;48.83;;;31.67;;
12871;SDS011;6504;53.766;9.626;2023-01-25T14:46:17;47.43;;;32.07;;
12871;SDS011;6504;53.766;9.626;2023-01-25T14:48:47;48.80;;;31.97;;
12871;SDS011;6504;53.766;9.626;2023-01-25T14:51:20;50.97;;;33.03;;
12871;SDS011;6504;53.766;9.626;2023-01-25T14:53:55;46.27;;;30.10;;
12871;SDS011;6504;53.766;9.626;2023-01-25T14:56:30;48.33;;;31.23;;
12871;SDS011;6504;53.766;9.626;2023-01-25T14:59:02;46.10;;;30.77;;
12871;SDS011;6504;53.766;9.626;2023-01-25T15:01:32;46.23;;;28.20;;
12871;SDS011;6504;53.766;9.626;2023-01-25T15:04:09;47.30;;;29.27;;
12871;SDS011;6504;53.766;9.626;2023-01-25T15:06:43;48.20;;;29.83;;
12871;SDS011;6504;53.766;9.626;2023-01-25T15:09:28;48.97;;;30.00;;
12871;SDS011;6504;53.766;9.626;2023-01-25T15:12:27;46.70;;;30.80;;
12871;SDS011;6504;53.766;9.626;2023-01-25T15:14:58;51.33;;;32.00;;
12871;SDS011;6504;53.766;9.626;2023-01-25T15:17:34;52.63;;;32.70;;
12871;SDS011;6504;53.766;9.626;2023-01-25T15:20:31;52.50;;;33.10;;
12871;SDS011;6504;53.766;9.626;2023-01-25T15:25:59;54.33;;;33.50;;
12871;SDS011;6504;53.766;9.626;2023-01-25T15:28:29;54.27;;;33.17;;